sensor_id;sensor_type;location;lat;lon;timestamp;temperature;humidity
13806;DHT22;6974;53.606;9.872;2023-03-03T00:01:06;3.50;99.90
13806;DHT22;6974;53.606;9.872;2023-03-03T00:03:33;3.60;99.90
13806;DHT22;6974;53.606;9.872;2023-03-03T00:06:02;3.60;99.90
13806;DHT22;6974;53.606;9.872;2023-03-03T00:08:30;3.60;99.90
13806;DHT22;6974;53.606;9.872;2023-03-03T00:10:58;3.70;99.90
13806;DHT22;6974;53.606;9.872;2023-03-03T00:13:29;3.60;99.90
13806;DHT22;6974;53.606;9.872;2023-03-03T00:16:11;3.60;99.90
13806;DHT22;6974;53.606;9.872;2023-03-03T00:18:41;3.70;99.90
13806;DHT22;6974;53.606;9.872;2023-03-03T00:21:21;3.70;99.90
13806;DHT22;6974;53.606;9.872;2023-03-03T00:23:51;3.70;99.90
13806;DHT22;6974;53.606;9.872;2023-03-03T00:26:22;3.70;99.90
13806;DHT22;6974;53.606;9.872;2023-03-03T00:28:50;3.70;99.90
13806;DHT22;6974;53.606;9.872;2023-03-03T00:31:19;3.70;99.90
13806;DHT22;6974;53.606;9.872;2023-03-03T00:33:48;3.70;99.90
13806;DHT22;6974;53.606;9.872;2023-03-03T00:36:30;3.60;99.90
13806;DHT22;6974;53.606;9.872;2023-03-03T00:39:18;3.50;99.90
13806;DHT22;6974;53.606;9.872;2023-03-03T00:41:47;3.50;99.90
13806;DHT22;6974;53.606;9.872;2023-03-03T00:44:37;3.60;99.90
13806;DHT22;6974;53.606;9.872;2023-03-03T00:49:59;3.60;99.90
13806;DHT22;6974;53.606;9.872;2023-03-03T00:52:44;3.60;99.90
13806;DHT22;6974;53.606;9.872;2023-03-03T00:55:14;3.60;99.90
13806;DHT22;6974;53.606;9.872;2023-03-03T00:57:41;3.60;99.90
13806;DHT22;6974;53.606;9.872;2023-03-03T01:00:09;3.60;99.90
13806;DHT22;6974;53.606;9.872;2023-03-03T01:02:37;3.60;99.90
13806;DHT22;6974;53.606;9.872;2023-03-03T01:05:04;3.60;99.90
13806;DHT22;6974;53.606;9.872;2023-03-03T01:07:31;3.60;99.90
13806;DHT22;6974;53.606;9.872;2023-03-03T01:09:58;3.60;99.90
13806;DHT22;6974;53.606;9.872;2023-03-03T01:12:26;3.50;99.90
13806;DHT22;6974;53.606;9.872;2023-03-03T01:14:53;3.50;99.90
13806;DHT22;6974;53.606;9.872;2023-03-03T01:17:20;3.50;99.90
13806;DHT22;6974;53.606;9.872;2023-03-03T01:19:47;3.60;99.90
13806;DHT22;6974;53.606;9.872;2023-03-03T01:22:14;3.50;99.90
13806;DHT22;6974;53.606;9.872;2023-03-03T01:24:41;3.50;99.90
13806;DHT22;6974;53.606;9.872;2023-03-03T01:27:07;3.50;99.90
13806;DHT22;6974;53.606;9.872;2023-03-03T01:29:35;3.40;99.90
13806;DHT22;6974;53.606;9.872;2023-03-03T01:32:02;3.40;99.90
13806;DHT22;6974;53.606;9.872;2023-03-03T01:34:29;3.40;99.90
13806;DHT22;6974;53.606;9.872;2023-03-03T01:36:56;3.40;99.90
13806;DHT22;6974;53.606;9.872;2023-03-03T01:39:23;3.40;99.90
13806;DHT22;6974;53.606;9.872;2023-03-03T01:41:50;3.30;99.90
13806;DHT22;6974;53.606;9.872;2023-03-03T01:44:17;3.40;99.90
13806;DHT22;6974;53.606;9.872;2023-03-03T01:46:50;3.40;99.90
13806;DHT22;6974;53.606;9.872;2023-03-03T01:49:21;3.40;99.90
13806;DHT22;6974;53.606;9.872;2023-03-03T01:51:52;3.40;99.90
13806;DHT22;6974;53.606;9.872;2023-03-03T01:54:24;3.30;99.90
13806;DHT22;6974;53.606;9.872;2023-03-03T01:56:54;3.30;99.90
13806;DHT22;6974;53.606;9.872;2023-03-03T01:59:25;3.30;99.90
13806;DHT22;6974;53.606;9.872;2023-03-03T02:01:54;3.30;99.90
13806;DHT22;6974;53.606;9.872;2023-03-03T02:04:21;3.30;99.90
13806;DHT22;6974;53.606;9.872;2023-03-03T02:06:53;3.40;99.90
13806;DHT22;6974;53.606;9.872;2023-03-03T02:09:26;3.40;99.90
13806;DHT22;6974;53.606;9.872;2023-03-03T02:11:58;3.30;99.90
13806;DHT22;6974;53.606;9.872;2023-03-03T02:14:26;3.30;99.90
13806;DHT22;6974;53.606;9.872;2023-03-03T02:16:54;3.30;99.90
13806;DHT22;6974;53.606;9.872;2023-03-03T02:19:27;3.30;99.90
13806;DHT22;6974;53.606;9.872;2023-03-03T02:21:57;3.20;99.90
13806;DHT22;6974;53.606;9.872;2023-03-03T02:24:31;3.20;99.90
13806;DHT22;6974;53.606;9.872;2023-03-03T02:27:00;3.20;99.90
13806;DHT22;6974;53.606;9.872;2023-03-03T02:29:27;3.20;99.90
13806;DHT22;6974;53.606;9.872;2023-03-03T02:31:54;3.20;99.90
13806;DHT22;6974;53.606;9.872;2023-03-03T02:34:21;3.20;99.90
13806;DHT22;6974;53.606;9.872;2023-03-03T02:36:48;3.20;99.90
13806;DHT22;6974;53.606;9.872;2023-03-03T02:39:16;3.20;99.90
13806;DHT22;6974;53.606;9.872;2023-03-03T02:41:47;3.20;99.90
13806;DHT22;6974;53.606;9.872;2023-03-03T02:44:18;3.20;99.90
13806;DHT22;6974;53.606;9.872;2023-03-03T02:46:46;3.20;99.90
13806;DHT22;6974;53.606;9.872;2023-03-03T02:49:16;3.20;99.90
13806;DHT22;6974;53.606;9.872;2023-03-03T02:51:44;3.30;99.90
13806;DHT22;6974;53.606;9.872;2023-03-03T02:54:12;3.30;99.90
13806;DHT22;6974;53.606;9.872;2023-03-03T02:56:40;3.30;99.90
13806;DHT22;6974;53.606;9.872;2023-03-03T02:59:07;3.20;99.90
13806;DHT22;6974;53.606;9.872;2023-03-03T03:01:36;3.20;99.90
13806;DHT22;6974;53.606;9.872;2023-03-03T03:04:05;3.10;99.90
13806;DHT22;6974;53.606;9.872;2023-03-03T03:06:32;3.10;99.90
13806;DHT22;6974;53.606;9.872;2023-03-03T03:08:59;3.20;99.90
13806;DHT22;6974;53.606;9.872;2023-03-03T03:11:26;3.10;99.90
13806;DHT22;6974;53.606;9.872;2023-03-03T03:13:53;3.10;99.90
13806;DHT22;6974;53.606;9.872;2023-03-03T03:16:20;3.10;99.90
13806;DHT22;6974;53.606;9.872;2023-03-03T03:18:48;3.10;99.90
13806;DHT22;6974;53.606;9.872;2023-03-03T03:21:16;3.10;99.90
13806;DHT22;6974;53.606;9.872;2023-03-03T03:23:43;3.10;99.90
13806;DHT22;6974;53.606;9.872;2023-03-03T03:26:10;3.10;99.90
13806;DHT22;6974;53.606;9.872;2023-03-03T03:28:37;3.10;99.90
13806;DHT22;6974;53.606;9.872;2023-03-03T03:31:05;3.10;99.90
13806;DHT22;6974;53.606;9.872;2023-03-03T03:33:33;3.10;99.90
13806;DHT22;6974;53.606;9.872;2023-03-03T03:36:02;3.10;99.90
13806;DHT22;6974;53.606;9.872;2023-03-03T03:38:31;3.10;99.90
13806;DHT22;6974;53.606;9.872;2023-03-03T03:40:58;3.10;99.90
13806;DHT22;6974;53.606;9.872;2023-03-03T03:43:25;3.10;99.90
13806;DHT22;6974;53.606;9.872;2023-03-03T03:45:52;3.10;99.90
13806;DHT22;6974;53.606;9.872;2023-03-03T03:48:19;3.00;99.90
13806;DHT22;6974;53.606;9.872;2023-03-03T03:50:46;3.00;99.90
13806;DHT22;6974;53.606;9.872;2023-03-03T03:53:15;2.90;99.90
13806;DHT22;6974;53.606;9.872;2023-03-03T03:55:42;2.90;99.90
13806;DHT22;6974;53.606;9.872;2023-03-03T03:58:11;2.90;99.90
13806;DHT22;6974;53.606;9.872;2023-03-03T04:00:39;2.90;99.90
13806;DHT22;6974;53.606;9.872;2023-03-03T04:03:06;2.90;99.90
13806;DHT22;6974;53.606;9.872;2023-03-03T04:05:33;2.90;99.90
13806;DHT22;6974;53.606;9.872;2023-03-03T04:08:00;2.90;99.90
13806;DHT22;6974;53.606;9.872;2023-03-03T04:10:28;3.00;99.90
13806;DHT22;6974;53.606;9.872;2023-03-03T04:12:55;3.00;99.90
13806;DHT22;6974;53.606;9.872;2023-03-03T04:15:23;3.00;99.90
13806;DHT22;6974;53.606;9.872;2023-03-03T04:17:49;3.00;99.90
13806;DHT22;6974;53.606;9.872;2023-03-03T04:20:16;3.00;99.90
13806;DHT22;6974;53.606;9.872;2023-03-03T04:22:43;3.00;99.90
13806;DHT22;6974;53.606;9.872;2023-03-03T04:25:13;2.90;99.90
13806;DHT22;6974;53.606;9.872;2023-03-03T04:27:42;3.00;99.90
13806;DHT22;6974;53.606;9.872;2023-03-03T04:30:10;3.00;99.90
13806;DHT22;6974;53.606;9.872;2023-03-03T04:32:37;3.00;99.90
13806;DHT22;6974;53.606;9.872;2023-03-03T04:35:04;3.00;99.90
13806;DHT22;6974;53.606;9.872;2023-03-03T04:37:31;3.00;99.90
13806;DHT22;6974;53.606;9.872;2023-03-03T04:39:58;3.00;99.90
13806;DHT22;6974;53.606;9.872;2023-03-03T04:42:25;3.00;99.90
13806;DHT22;6974;53.606;9.872;2023-03-03T04:44:54;3.00;99.90
13806;DHT22;6974;53.606;9.872;2023-03-03T04:47:21;3.00;99.90
13806;DHT22;6974;53.606;9.872;2023-03-03T04:49:48;3.00;99.90
13806;DHT22;6974;53.606;9.872;2023-03-03T04:52:15;3.10;99.90
13806;DHT22;6974;53.606;9.872;2023-03-03T04:54:42;3.10;99.90
13806;DHT22;6974;53.606;9.872;2023-03-03T04:57:09;3.10;99.90
13806;DHT22;6974;53.606;9.872;2023-03-03T04:59:36;3.10;99.90
13806;DHT22;6974;53.606;9.872;2023-03-03T05:02:04;3.10;99.90
13806;DHT22;6974;53.606;9.872;2023-03-03T05:04:31;3.10;99.90
13806;DHT22;6974;53.606;9.872;2023-03-03T05:06:58;3.00;99.90
13806;DHT22;6974;53.606;9.872;2023-03-03T05:09:25;3.00;99.90
13806;DHT22;6974;53.606;9.872;2023-03-03T05:11:52;3.00;99.90
13806;DHT22;6974;53.606;9.872;2023-03-03T05:14:19;3.00;99.90
13806;DHT22;6974;53.606;9.872;2023-03-03T05:16:46;3.00;99.90
13806;DHT22;6974;53.606;9.872;2023-03-03T05:19:14;3.10;99.90
13806;DHT22;6974;53.606;9.872;2023-03-03T05:21:41;3.00;99.90
13806;DHT22;6974;53.606;9.872;2023-03-03T05:24:08;3.00;99.90
13806;DHT22;6974;53.606;9.872;2023-03-03T05:26:35;3.10;99.90
13806;DHT22;6974;53.606;9.872;2023-03-03T05:29:02;3.10;99.90
13806;DHT22;6974;53.606;9.872;2023-03-03T05:31:28;3.10;99.90
13806;DHT22;6974;53.606;9.872;2023-03-03T05:33:55;3.10;99.90
13806;DHT22;6974;53.606;9.872;2023-03-03T05:36:24;3.10;99.90
13806;DHT22;6974;53.606;9.872;2023-03-03T05:38:51;3.10;99.90
13806;DHT22;6974;53.606;9.872;2023-03-03T05:41:18;3.10;99.90
13806;DHT22;6974;53.606;9.872;2023-03-03T05:43:45;3.00;99.90
13806;DHT22;6974;53.606;9.872;2023-03-03T05:46:11;3.00;99.90
13806;DHT22;6974;53.606;9.872;2023-03-03T05:48:38;3.00;99.90
13806;DHT22;6974;53.606;9.872;2023-03-03T05:51:05;3.00;99.90
13806;DHT22;6974;53.606;9.872;2023-03-03T05:53:33;3.00;99.90
13806;DHT22;6974;53.606;9.872;2023-03-03T05:56:00;3.00;99.90
13806;DHT22;6974;53.606;9.872;2023-03-03T05:58:27;3.00;99.90
13806;DHT22;6974;53.606;9.872;2023-03-03T06:00:54;3.00;99.90
13806;DHT22;6974;53.606;9.872;2023-03-03T06:03:21;3.10;99.90
13806;DHT22;6974;53.606;9.872;2023-03-03T06:05:48;3.10;99.90
13806;DHT22;6974;53.606;9.872;2023-03-03T06:08:15;3.10;99.90
13806;DHT22;6974;53.606;9.872;2023-03-03T06:10:43;3.10;99.90
13806;DHT22;6974;53.606;9.872;2023-03-03T06:13:10;3.10;99.90
13806;DHT22;6974;53.606;9.872;2023-03-03T06:15:37;3.10;99.90
13806;DHT22;6974;53.606;9.872;2023-03-03T06:18:04;3.10;99.90
13806;DHT22;6974;53.606;9.872;2023-03-03T06:20:31;3.10;99.90
13806;DHT22;6974;53.606;9.872;2023-03-03T06:23:00;3.10;99.90
13806;DHT22;6974;53.606;9.872;2023-03-03T06:25:26;3.10;99.90
13806;DHT22;6974;53.606;9.872;2023-03-03T06:27:55;3.10;99.90
13806;DHT22;6974;53.606;9.872;2023-03-03T06:30:22;3.10;99.90
13806;DHT22;6974;53.606;9.872;2023-03-03T06:32:49;3.10;99.90
13806;DHT22;6974;53.606;9.872;2023-03-03T06:35:16;3.10;99.90
13806;DHT22;6974;53.606;9.872;2023-03-03T06:37:42;3.10;99.90
13806;DHT22;6974;53.606;9.872;2023-03-03T06:40:10;3.10;99.90
13806;DHT22;6974;53.606;9.872;2023-03-03T06:42:37;3.10;99.90
13806;DHT22;6974;53.606;9.872;2023-03-03T06:45:06;3.10;99.90
13806;DHT22;6974;53.606;9.872;2023-03-03T06:47:33;3.10;99.90
13806;DHT22;6974;53.606;9.872;2023-03-03T06:50:00;3.10;99.90
13806;DHT22;6974;53.606;9.872;2023-03-03T06:52:27;3.10;99.90
13806;DHT22;6974;53.606;9.872;2023-03-03T06:54:56;3.00;99.90
13806;DHT22;6974;53.606;9.872;2023-03-03T06:57:25;2.90;99.90
13806;DHT22;6974;53.606;9.872;2023-03-03T06:59:54;3.00;99.90
13806;DHT22;6974;53.606;9.872;2023-03-03T07:02:24;3.00;99.90
13806;DHT22;6974;53.606;9.872;2023-03-03T07:04:52;3.10;99.90
13806;DHT22;6974;53.606;9.872;2023-03-03T07:07:23;3.10;99.90
13806;DHT22;6974;53.606;9.872;2023-03-03T07:09:51;3.10;99.90
13806;DHT22;6974;53.606;9.872;2023-03-03T07:12:20;3.10;99.90
13806;DHT22;6974;53.606;9.872;2023-03-03T07:14:49;3.10;99.90
13806;DHT22;6974;53.606;9.872;2023-03-03T07:17:22;3.10;99.90
13806;DHT22;6974;53.606;9.872;2023-03-03T07:19:51;3.10;99.90
13806;DHT22;6974;53.606;9.872;2023-03-03T07:22:21;3.30;99.90
13806;DHT22;6974;53.606;9.872;2023-03-03T07:24:50;3.50;99.90
13806;DHT22;6974;53.606;9.872;2023-03-03T07:27:22;3.60;99.90
13806;DHT22;6974;53.606;9.872;2023-03-03T07:29:51;3.50;99.90
13806;DHT22;6974;53.606;9.872;2023-03-03T07:32:26;3.50;99.90
13806;DHT22;6974;53.606;9.872;2023-03-03T07:34:55;3.40;99.90
13806;DHT22;6974;53.606;9.872;2023-03-03T07:37:29;3.40;99.90
13806;DHT22;6974;53.606;9.872;2023-03-03T07:39:58;3.30;99.90
13806;DHT22;6974;53.606;9.872;2023-03-03T07:42:26;3.30;99.90
13806;DHT22;6974;53.606;9.872;2023-03-03T07:44:57;3.30;99.90
13806;DHT22;6974;53.606;9.872;2023-03-03T07:47:25;3.30;99.90
13806;DHT22;6974;53.606;9.872;2023-03-03T07:49:55;3.40;99.90
13806;DHT22;6974;53.606;9.872;2023-03-03T07:52:26;3.40;99.90
13806;DHT22;6974;53.606;9.872;2023-03-03T07:54:55;3.40;99.90
13806;DHT22;6974;53.606;9.872;2023-03-03T07:57:24;3.40;99.90
13806;DHT22;6974;53.606;9.872;2023-03-03T07:59:53;3.40;99.90
13806;DHT22;6974;53.606;9.872;2023-03-03T08:02:38;3.40;99.90
13806;DHT22;6974;53.606;9.872;2023-03-03T08:05:33;3.40;99.90
13806;DHT22;6974;53.606;9.872;2023-03-03T08:08:31;3.40;99.90
13806;DHT22;6974;53.606;9.872;2023-03-03T08:11:02;3.40;99.90
13806;DHT22;6974;53.606;9.872;2023-03-03T08:13:36;3.40;99.90
13806;DHT22;6974;53.606;9.872;2023-03-03T08:16:20;3.50;99.90
13806;DHT22;6974;53.606;9.872;2023-03-03T08:18:51;3.50;99.90
13806;DHT22;6974;53.606;9.872;2023-03-03T08:21:21;3.50;99.90
13806;DHT22;6974;53.606;9.872;2023-03-03T08:23:48;3.50;99.90
13806;DHT22;6974;53.606;9.872;2023-03-03T08:26:16;3.60;99.90
13806;DHT22;6974;53.606;9.872;2023-03-03T08:28:43;3.60;99.90
13806;DHT22;6974;53.606;9.872;2023-03-03T08:31:10;3.60;99.90
13806;DHT22;6974;53.606;9.872;2023-03-03T08:33:37;3.60;99.90
13806;DHT22;6974;53.606;9.872;2023-03-03T08:36:05;3.60;99.90
13806;DHT22;6974;53.606;9.872;2023-03-03T08:38:34;3.70;99.90
13806;DHT22;6974;53.606;9.872;2023-03-03T08:41:01;3.60;99.90
13806;DHT22;6974;53.606;9.872;2023-03-03T08:43:28;3.70;99.90
13806;DHT22;6974;53.606;9.872;2023-03-03T08:45:57;3.80;99.90
13806;DHT22;6974;53.606;9.872;2023-03-03T08:48:25;3.80;99.90
13806;DHT22;6974;53.606;9.872;2023-03-03T08:50:53;3.80;99.90
13806;DHT22;6974;53.606;9.872;2023-03-03T08:53:21;3.90;99.90
13806;DHT22;6974;53.606;9.872;2023-03-03T08:55:49;3.90;99.90
13806;DHT22;6974;53.606;9.872;2023-03-03T08:58:18;4.00;99.90
13806;DHT22;6974;53.606;9.872;2023-03-03T09:00:46;4.00;99.90
13806;DHT22;6974;53.606;9.872;2023-03-03T09:03:13;4.00;99.90
13806;DHT22;6974;53.606;9.872;2023-03-03T09:05:40;4.00;99.90
13806;DHT22;6974;53.606;9.872;2023-03-03T09:08:09;4.00;99.90
13806;DHT22;6974;53.606;9.872;2023-03-03T09:10:36;4.10;99.90
13806;DHT22;6974;53.606;9.872;2023-03-03T09:13:11;4.10;99.90
13806;DHT22;6974;53.606;9.872;2023-03-03T09:15:39;4.10;99.90
13806;DHT22;6974;53.606;9.872;2023-03-03T09:18:13;4.10;99.90
13806;DHT22;6974;53.606;9.872;2023-03-03T09:20:42;4.20;99.90
13806;DHT22;6974;53.606;9.872;2023-03-03T09:23:32;4.20;99.90
13806;DHT22;6974;53.606;9.872;2023-03-03T09:26:23;4.20;99.90
13806;DHT22;6974;53.606;9.872;2023-03-03T09:28:54;4.30;99.90
13806;DHT22;6974;53.606;9.872;2023-03-03T09:31:25;4.30;99.90
13806;DHT22;6974;53.606;9.872;2023-03-03T09:33:52;4.30;99.90
13806;DHT22;6974;53.606;9.872;2023-03-03T09:36:24;4.30;99.90
13806;DHT22;6974;53.606;9.872;2023-03-03T09:38:52;4.30;99.90
13806;DHT22;6974;53.606;9.872;2023-03-03T09:44:49;4.30;99.90
13806;DHT22;6974;53.606;9.872;2023-03-03T09:47:34;4.30;99.90
13806;DHT22;6974;53.606;9.872;2023-03-03T09:50:11;4.40;99.90
13806;DHT22;6974;53.606;9.872;2023-03-03T09:52:48;4.50;99.90
13806;DHT22;6974;53.606;9.872;2023-03-03T09:55:34;4.60;99.90
13806;DHT22;6974;53.606;9.872;2023-03-03T09:58:20;4.60;99.90
13806;DHT22;6974;53.606;9.872;2023-03-03T10:00:56;4.60;99.90
13806;DHT22;6974;53.606;9.872;2023-03-03T10:03:46;4.70;99.90
13806;DHT22;6974;53.606;9.872;2023-03-03T10:06:23;4.80;99.90
13806;DHT22;6974;53.606;9.872;2023-03-03T10:09:07;4.70;99.90
13806;DHT22;6974;53.606;9.872;2023-03-03T10:11:40;4.60;99.90
13806;DHT22;6974;53.606;9.872;2023-03-03T10:15:38;4.70;99.90
13806;DHT22;6974;53.606;9.872;2023-03-03T10:17:47;4.70;99.90
13806;DHT22;6974;53.606;9.872;2023-03-03T10:20:37;4.70;99.90
13806;DHT22;6974;53.606;9.872;2023-03-03T10:23:17;4.80;99.90
13806;DHT22;6974;53.606;9.872;2023-03-03T10:25:53;4.90;99.90
13806;DHT22;6974;53.606;9.872;2023-03-03T10:28:52;4.90;99.90
13806;DHT22;6974;53.606;9.872;2023-03-03T10:31:30;5.00;99.90
13806;DHT22;6974;53.606;9.872;2023-03-03T10:34:11;5.00;99.90
13806;DHT22;6974;53.606;9.872;2023-03-03T10:36:50;5.00;99.90
13806;DHT22;6974;53.606;9.872;2023-03-03T10:39:28;5.10;99.90
13806;DHT22;6974;53.606;9.872;2023-03-03T10:42:15;5.10;99.90
13806;DHT22;6974;53.606;9.872;2023-03-03T10:45:12;5.20;99.90
13806;DHT22;6974;53.606;9.872;2023-03-03T10:47:56;5.30;99.90
13806;DHT22;6974;53.606;9.872;2023-03-03T10:50:45;5.40;99.90
13806;DHT22;6974;53.606;9.872;2023-03-03T10:53:21;5.40;99.90
13806;DHT22;6974;53.606;9.872;2023-03-03T10:56:14;5.40;99.90
13806;DHT22;6974;53.606;9.872;2023-03-03T10:58:47;5.40;99.90
13806;DHT22;6974;53.606;9.872;2023-03-03T11:01:25;5.40;99.90
13806;DHT22;6974;53.606;9.872;2023-03-03T11:04:22;5.30;99.90
13806;DHT22;6974;53.606;9.872;2023-03-03T11:06:57;5.30;99.90
13806;DHT22;6974;53.606;9.872;2023-03-03T11:09:38;5.30;99.90
13806;DHT22;6974;53.606;9.872;2023-03-03T11:12:30;5.40;99.90
13806;DHT22;6974;53.606;9.872;2023-03-03T11:15:20;5.40;99.90
13806;DHT22;6974;53.606;9.872;2023-03-03T11:17:57;5.40;99.90
13806;DHT22;6974;53.606;9.872;2023-03-03T11:20:35;5.40;99.90
13806;DHT22;6974;53.606;9.872;2023-03-03T11:23:20;5.50;99.90
13806;DHT22;6974;53.606;9.872;2023-03-03T11:25:56;5.50;99.90
13806;DHT22;6974;53.606;9.872;2023-03-03T11:28:35;5.50;99.90
13806;DHT22;6974;53.606;9.872;2023-03-03T11:31:13;5.60;99.90
13806;DHT22;6974;53.606;9.872;2023-03-03T11:33:53;5.60;99.90
13806;DHT22;6974;53.606;9.872;2023-03-03T11:36:33;5.70;99.90
13806;DHT22;6974;53.606;9.872;2023-03-03T11:39:06;5.80;99.90
13806;DHT22;6974;53.606;9.872;2023-03-03T11:41:38;5.80;99.90
13806;DHT22;6974;53.606;9.872;2023-03-03T11:44:16;5.90;99.90
13806;DHT22;6974;53.606;9.872;2023-03-03T11:46:47;5.90;99.90
13806;DHT22;6974;53.606;9.872;2023-03-03T11:49:19;5.90;99.90
13806;DHT22;6974;53.606;9.872;2023-03-03T11:51:54;6.00;99.90
13806;DHT22;6974;53.606;9.872;2023-03-03T11:54:27;6.00;99.90
13806;DHT22;6974;53.606;9.872;2023-03-03T11:57:00;6.10;99.90
13806;DHT22;6974;53.606;9.872;2023-03-03T11:59:47;6.20;99.90
13806;DHT22;6974;53.606;9.872;2023-03-03T12:02:26;6.30;99.90
13806;DHT22;6974;53.606;9.872;2023-03-03T12:05:00;6.30;99.90
13806;DHT22;6974;53.606;9.872;2023-03-03T12:07:39;6.40;99.90
13806;DHT22;6974;53.606;9.872;2023-03-03T12:10:18;6.50;99.90
13806;DHT22;6974;53.606;9.872;2023-03-03T12:12:53;6.50;99.90
13806;DHT22;6974;53.606;9.872;2023-03-03T12:15:27;6.60;99.90
13806;DHT22;6974;53.606;9.872;2023-03-03T12:18:13;6.70;99.90
13806;DHT22;6974;53.606;9.872;2023-03-03T12:20:48;6.60;99.90
13806;DHT22;6974;53.606;9.872;2023-03-03T12:23:31;6.70;99.90
13806;DHT22;6974;53.606;9.872;2023-03-03T12:26:06;6.70;99.90
13806;DHT22;6974;53.606;9.872;2023-03-03T12:28:41;6.70;99.90
13806;DHT22;6974;53.606;9.872;2023-03-03T12:31:18;6.60;99.90
13806;DHT22;6974;53.606;9.872;2023-03-03T12:33:54;6.70;99.90
13806;DHT22;6974;53.606;9.872;2023-03-03T12:39:43;6.60;99.90
13806;DHT22;6974;53.606;9.872;2023-03-03T12:42:19;6.60;99.90
13806;DHT22;6974;53.606;9.872;2023-03-03T12:44:52;6.60;99.90
13806;DHT22;6974;53.606;9.872;2023-03-03T12:47:27;6.60;99.90
13806;DHT22;6974;53.606;9.872;2023-03-03T12:50:04;6.60;99.90
13806;DHT22;6974;53.606;9.872;2023-03-03T12:52:41;6.70;99.90
13806;DHT22;6974;53.606;9.872;2023-03-03T12:55:16;6.80;99.90
13806;DHT22;6974;53.606;9.872;2023-03-03T12:57:50;6.90;99.90
13806;DHT22;6974;53.606;9.872;2023-03-03T13:00:26;7.00;99.90
13806;DHT22;6974;53.606;9.872;2023-03-03T13:03:03;7.10;99.90
13806;DHT22;6974;53.606;9.872;2023-03-03T13:05:43;7.10;99.90
13806;DHT22;6974;53.606;9.872;2023-03-03T13:08:27;7.10;99.90
13806;DHT22;6974;53.606;9.872;2023-03-03T13:11:04;7.20;99.90
13806;DHT22;6974;53.606;9.872;2023-03-03T13:13:38;7.30;99.90
13806;DHT22;6974;53.606;9.872;2023-03-03T13:16:10;7.30;99.90
13806;DHT22;6974;53.606;9.872;2023-03-03T13:18:50;7.20;99.90
13806;DHT22;6974;53.606;9.872;2023-03-03T13:21:22;7.30;99.90
13806;DHT22;6974;53.606;9.872;2023-03-03T13:23:54;7.30;99.90
13806;DHT22;6974;53.606;9.872;2023-03-03T13:26:28;7.40;99.90
13806;DHT22;6974;53.606;9.872;2023-03-03T13:29:03;7.40;99.90
13806;DHT22;6974;53.606;9.872;2023-03-03T13:31:37;7.40;99.90
13806;DHT22;6974;53.606;9.872;2023-03-03T13:34:07;7.40;99.90
13806;DHT22;6974;53.606;9.872;2023-03-03T13:36:41;7.40;99.90
13806;DHT22;6974;53.606;9.872;2023-03-03T13:39:17;7.40;99.90
13806;DHT22;6974;53.606;9.872;2023-03-03T13:41:48;7.40;99.90
13806;DHT22;6974;53.606;9.872;2023-03-03T13:44:23;7.40;99.90
13806;DHT22;6974;53.606;9.872;2023-03-03T13:46:59;7.40;99.90
13806;DHT22;6974;53.606;9.872;2023-03-03T13:49:44;7.30;99.90
13806;DHT22;6974;53.606;9.872;2023-03-03T13:52:16;7.40;99.90
13806;DHT22;6974;53.606;9.872;2023-03-03T13:55:07;7.40;99.90
13806;DHT22;6974;53.606;9.872;2023-03-03T13:57:44;7.50;99.90
13806;DHT22;6974;53.606;9.872;2023-03-03T14:00:33;7.50;99.90
13806;DHT22;6974;53.606;9.872;2023-03-03T14:03:21;7.50;99.90
13806;DHT22;6974;53.606;9.872;2023-03-03T14:05:51;7.50;99.90
13806;DHT22;6974;53.606;9.872;2023-03-03T14:08:37;7.50;99.90
13806;DHT22;6974;53.606;9.872;2023-03-03T14:11:10;7.40;99.90
13806;DHT22;6974;53.606;9.872;2023-03-03T14:13:43;7.30;99.90
13806;DHT22;6974;53.606;9.872;2023-03-03T14:16:20;7.40;99.90
13806;DHT22;6974;53.606;9.872;2023-03-03T14:18:54;7.30;99.90
13806;DHT22;6974;53.606;9.872;2023-03-03T14:21:27;7.30;99.90
13806;DHT22;6974;53.606;9.872;2023-03-03T14:24:00;7.30;99.90
13806;DHT22;6974;53.606;9.872;2023-03-03T14:26:30;7.30;99.90
13806;DHT22;6974;53.606;9.872;2023-03-03T14:29:15;7.30;99.90
13806;DHT22;6974;53.606;9.872;2023-03-03T14:31:45;7.30;99.90
13806;DHT22;6974;53.606;9.872;2023-03-03T14:34:28;7.40;99.90
13806;DHT22;6974;53.606;9.872;2023-03-03T14:36:59;7.40;99.90
13806;DHT22;6974;53.606;9.872;2023-03-03T14:39:36;7.40;99.90
13806;DHT22;6974;53.606;9.872;2023-03-03T14:42:12;7.40;99.90
13806;DHT22;6974;53.606;9.872;2023-03-03T14:44:52;7.40;99.90
13806;DHT22;6974;53.606;9.872;2023-03-03T14:47:24;7.40;99.90
13806;DHT22;6974;53.606;9.872;2023-03-03T14:49:52;7.40;99.90
13806;DHT22;6974;53.606;9.872;2023-03-03T14:52:25;7.30;99.90
13806;DHT22;6974;53.606;9.872;2023-03-03T14:54:53;7.40;99.90
13806;DHT22;6974;53.606;9.872;2023-03-03T14:57:22;7.30;99.90
13806;DHT22;6974;53.606;9.872;2023-03-03T15:00:25;7.30;99.90
13806;DHT22;6974;53.606;9.872;2023-03-03T15:03:01;7.30;99.90
13806;DHT22;6974;53.606;9.872;2023-03-03T15:05:30;7.30;99.90
13806;DHT22;6974;53.606;9.872;2023-03-03T15:08:08;7.30;99.90
13806;DHT22;6974;53.606;9.872;2023-03-03T15:10:36;7.40;99.90
13806;DHT22;6974;53.606;9.872;2023-03-03T15:13:32;7.40;99.90
13806;DHT22;6974;53.606;9.872;2023-03-03T15:16:04;7.40;99.90
13806;DHT22;6974;53.606;9.872;2023-03-03T15:18:53;7.40;99.90
13806;DHT22;6974;53.606;9.872;2023-03-03T15:21:27;7.30;99.90
13806;DHT22;6974;53.606;9.872;2023-03-03T15:24:03;7.30;99.90
13806;DHT22;6974;53.606;9.872;2023-03-03T15:26:39;7.30;99.90
13806;DHT22;6974;53.606;9.872;2023-03-03T15:29:16;7.30;99.90
13806;DHT22;6974;53.606;9.872;2023-03-03T15:31:52;7.30;99.90
13806;DHT22;6974;53.606;9.872;2023-03-03T15:34:34;7.20;99.90
13806;DHT22;6974;53.606;9.872;2023-03-03T15:37:08;7.20;99.90
13806;DHT22;6974;53.606;9.872;2023-03-03T15:39:46;7.20;99.90
13806;DHT22;6974;53.606;9.872;2023-03-03T15:42:17;7.10;99.90
13806;DHT22;6974;53.606;9.872;2023-03-03T15:44:55;7.00;99.90
13806;DHT22;6974;53.606;9.872;2023-03-03T15:50:30;7.00;99.90
13806;DHT22;6974;53.606;9.872;2023-03-03T15:53:08;6.90;99.90
13806;DHT22;6974;53.606;9.872;2023-03-03T15:55:46;7.00;99.90
13806;DHT22;6974;53.606;9.872;2023-03-03T15:58:39;6.90;99.90
13806;DHT22;6974;53.606;9.872;2023-03-03T16:01:14;6.90;99.90
13806;DHT22;6974;53.606;9.872;2023-03-03T16:03:48;6.90;99.90
13806;DHT22;6974;53.606;9.872;2023-03-03T16:06:29;6.90;99.90
13806;DHT22;6974;53.606;9.872;2023-03-03T16:09:07;6.90;99.90
13806;DHT22;6974;53.606;9.872;2023-03-03T16:11:42;6.90;99.90
13806;DHT22;6974;53.606;9.872;2023-03-03T16:14:35;6.90;99.90
13806;DHT22;6974;53.606;9.872;2023-03-03T16:17:13;6.90;99.90
13806;DHT22;6974;53.606;9.872;2023-03-03T16:19:48;6.90;99.90
13806;DHT22;6974;53.606;9.872;2023-03-03T16:22:52;6.90;99.90
13806;DHT22;6974;53.606;9.872;2023-03-03T16:25:39;6.80;99.90
13806;DHT22;6974;53.606;9.872;2023-03-03T16:28:12;6.80;99.90
13806;DHT22;6974;53.606;9.872;2023-03-03T16:30:49;6.70;99.90
13806;DHT22;6974;53.606;9.872;2023-03-03T16:33:21;6.70;99.90
13806;DHT22;6974;53.606;9.872;2023-03-03T16:35:57;6.70;99.90
13806;DHT22;6974;53.606;9.872;2023-03-03T16:38:31;6.70;99.90
13806;DHT22;6974;53.606;9.872;2023-03-03T16:41:00;6.70;99.90
13806;DHT22;6974;53.606;9.872;2023-03-03T16:43:35;6.70;99.90
13806;DHT22;6974;53.606;9.872;2023-03-03T16:46:20;6.70;99.90
13806;DHT22;6974;53.606;9.872;2023-03-03T16:48:53;6.70;99.90
13806;DHT22;6974;53.606;9.872;2023-03-03T16:51:30;6.70;99.90